Time;durP1;ratioP1;P1;durP2;ratioP2;P2;SDS_P1;SDS_P2;PMS_P1;PMS_P2;Temp;Humidity;BMP_temperature;BMP_pressure;BME280_temperature;BME280_humidity;BME280_pressure;Samples;Min_cycle;Max_cycle;Signal;HPM_P1;HPM_P2
2023/05/10 00:01:20;;;;;;;;;;;;;;;;;;7362351;19;1857;-66
2023/05/10 00:03:48;;;;;;;;;;;;;;;;;;7364539;19;818;-65
2023/05/10 00:06:16;;;;;;;;;;;;;;;;;;7361353;19;1284;-65
2023/05/10 00:08:45;;;;;;;;;;;;;;;;;;7364716;19;794;-64
2023/05/10 00:11:13;;;;;;;;;;;;;;;;;;7364198;19;838;-65
2023/05/10 00:13:41;;;;;;;;;;;;;;;;;;7367128;19;809;-65
2023/05/10 00:16:09;;;;;;;;;;;;;;;;;;7369427;19;1247;-65
2023/05/10 00:18:37;;;;;;;;;;;;;;;;;;7371356;19;873;-66
2023/05/10 00:21:05;;;;;;;;;;;;;;;;;;7371584;19;1841;-66
2023/05/10 00:23:33;;;;;;;;;;;;;;;;;;7372625;19;803;-66
2023/05/10 00:26:02;;;;;;;;;;;;;;;;;;7370160;19;1328;-66
2023/05/10 00:28:30;;;;;;;;;;;;;;;;;;7371909;19;863;-65
2023/05/10 00:30:58;;;;;;;;;;;;;;;;;;7370746;19;816;-66
2023/05/10 00:33:26;;;;;;;;;;;;;;;;;;7372198;19;813;-66
2023/05/10 00:35:55;;;;;;;;;;;;;;;;;;7373239;19;1365;-65
2023/05/10 00:38:23;;;;;;;;;;;;;;;;;;7371123;19;870;-65
2023/05/10 00:40:51;;;;;;;;;;;;;;;;;;7368785;19;1842;-66
2023/05/10 00:43:27;;;;;;;;;;;;;;;;;;7371096;19;1485;-66
2023/05/10 00:45:55;;;;;;;;;;;;;;;;;;7368968;19;1282;-67
2023/05/10 00:48:23;;;;;;;;;;;;;;;;;;7368389;19;831;-66
2023/05/10 00:50:51;;;;;;;;;;;;;;;;;;7370019;19;1098;-66
2023/05/10 00:53:20;;;;;;;;;;;;;;;;;;7368289;19;795;-67
2023/05/10 00:55:48;;;;;;;;;;;;;;;;;;7365762;19;1278;-67
2023/05/10 00:58:16;;;;;;;;;;;;;;;;;;7367190;19;811;-67
2023/05/10 01:00:44;;;;;;;;;;;;;;;;;;7368785;19;1845;-66
2023/05/10 01:03:12;;;;;;;;;;;;;;;;;;7369402;19;835;-67
2023/05/10 01:05:40;;;;;;;;;;;;;;;;;;7367054;19;1282;-66
2023/05/10 01:08:09;;;;;;;;;;;;;;;;;;7368104;19;803;-67
2023/05/10 01:10:37;;;;;;;;;;;;;;;;;;7369182;19;807;-68
2023/05/10 01:13:08;;;;;;;;;;;;;;;;;;7366928;19;1126;-67
2023/05/10 01:15:36;;;;;;;;;;;;;;;;;;7365530;19;1289;-67
2023/05/10 01:18:04;;;;;;;;;;;;;;;;;;7366972;19;835;-68
2023/05/10 01:20:32;;;;;;;;;;;;;;;;;;7367546;19;1850;-67
2023/05/10 01:23:00;;;;;;;;;;;;;;;;;;7368300;19;861;-68
2023/05/10 01:25:28;;;;;;;;;;;;;;;;;;7364697;19;1271;-68
2023/05/10 01:27:56;;;;;;;;;;;;;;;;;;7368192;19;880;-67
2023/05/10 01:30:24;;;;;;;;;;;;;;;;;;7367524;19;789;-67
2023/05/10 01:32:52;;;;;;;;;;;;;;;;;;7367324;19;806;-67
2023/05/10 01:35:21;;;;;;;;;;;;;;;;;;7365228;19;1310;-67
2023/05/10 01:37:49;;;;;;;;;;;;;;;;;;7366035;19;782;-65
2023/05/10 01:40:18;;;;;;;;;;;;;;;;;;7368817;19;1790;-68
2023/05/10 01:42:46;;;;;;;;;;;;;;;;;;7365761;19;1853;-67
2023/05/10 01:45:14;;;;;;;;;;;;;;;;;;7366089;19;1299;-66
2023/05/10 01:47:43;;;;;;;;;;;;;;;;;;7366956;19;1598;-67
2023/05/10 01:50:11;;;;;;;;;;;;;;;;;;7368056;19;797;-66
2023/05/10 01:52:39;;;;;;;;;;;;;;;;;;7368078;19;817;-66
2023/05/10 01:55:07;;;;;;;;;;;;;;;;;;7368742;19;1833;-67
2023/05/10 01:57:36;;;;;;;;;;;;;;;;;;7365807;19;804;-73
2023/05/10 02:00:05;;;;;;;;;;;;;;;;;;7365642;19;849;-66
2023/05/10 02:02:42;;;;;;;;;;;;;;;;;;7365321;19;1866;-67
2023/05/10 02:05:10;;;;;;;;;;;;;;;;;;7364404;19;1388;-68
2023/05/10 02:07:38;;;;;;;;;;;;;;;;;;7365427;19;1825;-70
2023/05/10 02:10:07;;;;;;;;;;;;;;;;;;7365752;19;808;-66
2023/05/10 02:12:35;;;;;;;;;;;;;;;;;;7366360;19;755;-67
2023/05/10 02:15:03;;;;;;;;;;;;;;;;;;7364095;19;1332;-67
2023/05/10 02:17:31;;;;;;;;;;;;;;;;;;7365951;19;767;-75
2023/05/10 02:19:59;;;;;;;;;;;;;;;;;;7365407;19;771;-68
2023/05/10 02:22:27;;;;;;;;;;;;;;;;;;7366787;19;1833;-67
2023/05/10 02:24:55;;;;;;;;;;;;;;;;;;7364845;19;1391;-66
2023/05/10 02:27:24;;;;;;;;;;;;;;;;;;7366457;19;812;-65
2023/05/10 02:29:52;;;;;;;;;;;;;;;;;;7364187;19;807;-67
2023/05/10 02:32:20;;;;;;;;;;;;;;;;;;7364589;19;834;-67
2023/05/10 02:34:51;;;;;;;;;;;;;;;;;;7363806;19;1299;-67
2023/05/10 02:37:19;;;;;;;;;;;;;;;;;;7363966;19;777;-68
2023/05/10 02:39:47;;;;;;;;;;;;;;;;;;7365689;19;875;-68
2023/05/10 02:42:16;;;;;;;;;;;;;;;;;;7363331;19;1861;-66
2023/05/10 02:44:44;;;;;;;;;;;;;;;;;;7365304;19;1276;-65
2023/05/10 02:47:12;;;;;;;;;;;;;;;;;;7364385;19;839;-65
2023/05/10 02:49:40;;;;;;;;;;;;;;;;;;7364497;19;2056;-66
2023/05/10 02:52:08;;;;;;;;;;;;;;;;;;7367797;19;1800;-65
2023/05/10 02:54:37;;;;;;;;;;;;;;;;;;7366565;19;1670;-64
2023/05/10 02:57:05;;;;;;;;;;;;;;;;;;7364401;19;905;-67
2023/05/10 02:59:33;;;;;;;;;;;;;;;;;;7364713;19;718;-67
2023/05/10 03:02:02;;;;;;;;;;;;;;;;;;7363438;19;1849;-69
2023/05/10 03:04:30;;;;;;;;;;;;;;;;;;7366973;19;1862;-68
2023/05/10 03:06:59;;;;;;;;;;;;;;;;;;7363451;19;780;-64
2023/05/10 03:09:27;;;;;;;;;;;;;;;;;;7364644;19;772;-64
2023/05/10 03:11:55;;;;;;;;;;;;;;;;;;7363564;19;796;-67
2023/05/10 03:14:23;;;;;;;;;;;;;;;;;;7363474;19;1341;-66
2023/05/10 03:16:52;;;;;;;;;;;;;;;;;;7367545;19;1816;-69
2023/05/10 03:19:20;;;;;;;;;;;;;;;;;;7366808;19;1837;-67
2023/05/10 03:21:48;;;;;;;;;;;;;;;;;;7362731;19;1866;-66
2023/05/10 03:24:17;;;;;;;;;;;;;;;;;;7362620;19;1911;-65
2023/05/10 03:26:46;;;;;;;;;;;;;;;;;;7363856;19;883;-65
2023/05/10 03:29:18;;;;;;;;;;;;;;;;;;7362415;19;781;-66
2023/05/10 03:31:46;;;;;;;;;;;;;;;;;;7364867;19;2162;-66
2023/05/10 03:34:17;;;;;;;;;;;;;;;;;;7362920;19;1300;-65
2023/05/10 03:36:45;;;;;;;;;;;;;;;;;;7364119;19;895;-67
2023/05/10 03:39:13;;;;;;;;;;;;;;;;;;7363175;19;785;-66
2023/05/10 03:41:41;;;;;;;;;;;;;;;;;;7362723;19;1869;-66
2023/05/10 03:44:10;;;;;;;;;;;;;;;;;;7362640;19;1341;-66
2023/05/10 03:46:38;;;;;;;;;;;;;;;;;;7363552;19;871;-65
2023/05/10 03:49:06;;;;;;;;;;;;;;;;;;7371468;19;1953;-65
2023/05/10 03:51:34;;;;;;;;;;;;;;;;;;7369795;19;835;-67
2023/05/10 03:54:03;;;;;;;;;;;;;;;;;;7369803;19;1246;-67
2023/05/10 03:56:31;;;;;;;;;;;;;;;;;;7368717;19;762;-67
2023/05/10 03:58:59;;;;;;;;;;;;;;;;;;7369068;19;850;-65
2023/05/10 04:01:27;;;;;;;;;;;;;;;;;;7368917;19;1849;-65
2023/05/10 04:03:55;;;;;;;;;;;;;;;;;;7371792;19;1795;-66
2023/05/10 04:06:23;;;;;;;;;;;;;;;;;;7367515;19;1523;-65
2023/05/10 04:08:52;;;;;;;;;;;;;;;;;;7369641;19;1867;-66
2023/05/10 04:11:21;;;;;;;;;;;;;;;;;;7372541;19;2107;-66
2023/05/10 04:13:49;;;;;;;;;;;;;;;;;;7374197;19;1212;-67
2023/05/10 04:16:18;;;;;;;;;;;;;;;;;;7370481;19;1603;-67
2023/05/10 04:18:46;;;;;;;;;;;;;;;;;;7373423;19;1094;-65
2023/05/10 04:21:14;;;;;;;;;;;;;;;;;;7372304;19;1997;-66
2023/05/10 04:23:43;;;;;;;;;;;;;;;;;;7368155;19;1858;-66
2023/05/10 04:26:11;;;;;;;;;;;;;;;;;;7368102;19;1274;-66
2023/05/10 04:28:39;;;;;;;;;;;;;;;;;;7369852;19;827;-66
2023/05/10 04:31:07;;;;;;;;;;;;;;;;;;7373449;19;1997;-66
2023/05/10 04:33:35;;;;;;;;;;;;;;;;;;7370042;19;888;-66
2023/05/10 04:36:03;;;;;;;;;;;;;;;;;;7368173;19;1290;-66
2023/05/10 04:38:31;;;;;;;;;;;;;;;;;;7369171;19;800;-66
2023/05/10 04:41:00;;;;;;;;;;;;;;;;;;7373704;19;1557;-66
2023/05/10 04:43:28;;;;;;;;;;;;;;;;;;7368340;19;1855;-66
2023/05/10 04:45:56;;;;;;;;;;;;;;;;;;7367863;19;1301;-66
2023/05/10 04:48:24;;;;;;;;;;;;;;;;;;7369034;19;802;-66
2023/05/10 04:50:52;;;;;;;;;;;;;;;;;;7370187;19;709;-68
2023/05/10 04:53:20;;;;;;;;;;;;;;;;;;7370105;19;826;-67
2023/05/10 04:55:48;;;;;;;;;;;;;;;;;;7367309;19;1313;-67
2023/05/10 04:58:16;;;;;;;;;;;;;;;;;;7367608;19;798;-68
2023/05/10 05:00:45;;;;;;;;;;;;;;;;;;7371965;19;2066;-68
2023/05/10 05:03:13;;;;;;;;;;;;;;;;;;7370934;19;2026;-65
2023/05/10 05:05:41;;;;;;;;;;;;;;;;;;7367812;19;1286;-66
2023/05/10 05:08:09;;;;;;;;;;;;;;;;;;7368461;19;782;-66
2023/05/10 05:10:37;;;;;;;;;;;;;;;;;;7369103;19;821;-68
2023/05/10 05:13:05;;;;;;;;;;;;;;;;;;7368294;19;767;-66
2023/05/10 05:15:33;;;;;;;;;;;;;;;;;;7367341;19;1280;-67
2023/05/10 05:18:02;;;;;;;;;;;;;;;;;;7368145;19;831;-66
2023/05/10 05:20:30;;;;;;;;;;;;;;;;;;7368388;19;882;-67
2023/05/10 05:22:58;;;;;;;;;;;;;;;;;;7369980;19;1844;-68
2023/05/10 05:25:26;;;;;;;;;;;;;;;;;;7370374;19;1275;-67
2023/05/10 05:27:54;;;;;;;;;;;;;;;;;;7372592;19;1135;-67
2023/05/10 05:30:23;;;;;;;;;;;;;;;;;;7370253;19;2055;-67
2023/05/10 05:32:51;;;;;;;;;;;;;;;;;;7368924;19;680;-67
2023/05/10 05:35:19;;;;;;;;;;;;;;;;;;7367560;19;1327;-66
2023/05/10 05:37:47;;;;;;;;;;;;;;;;;;7367726;19;822;-68
2023/05/10 05:40:15;;;;;;;;;;;;;;;;;;7368805;19;758;-69
2023/05/10 05:42:43;;;;;;;;;;;;;;;;;;7367376;19;1846;-67
2023/05/10 05:45:12;;;;;;;;;;;;;;;;;;7365544;19;1294;-67
2023/05/10 05:47:40;;;;;;;;;;;;;;;;;;7369435;19;1817;-68
2023/05/10 05:50:09;;;;;;;;;;;;;;;;;;7367884;19;817;-67
2023/05/10 05:52:37;;;;;;;;;;;;;;;;;;7367799;19;767;-66
2023/05/10 05:55:05;;;;;;;;;;;;;;;;;;7366874;19;2157;-64
2023/05/10 05:57:33;;;;;;;;;;;;;;;;;;7367996;19;881;-68
2023/05/10 06:00:02;;;;;;;;;;;;;;;;;;7369142;19;697;-68
2023/05/10 06:02:40;;;;;;;;;;;;;;;;;;7366841;19;1857;-67
2023/05/10 06:05:08;;;;;;;;;;;;;;;;;;7365978;19;1306;-65
2023/05/10 06:07:36;;;;;;;;;;;;;;;;;;7366841;19;856;-68
2023/05/10 06:10:05;;;;;;;;;;;;;;;;;;7367860;19;993;-68
2023/05/10 06:12:33;;;;;;;;;;;;;;;;;;7371096;19;1475;-70
2023/05/10 06:15:02;;;;;;;;;;;;;;;;;;7370138;19;1749;-69
2023/05/10 06:17:30;;;;;;;;;;;;;;;;;;7366971;19;685;-68
2023/05/10 06:19:58;;;;;;;;;;;;;;;;;;7366622;19;806;-67
2023/05/10 06:22:26;;;;;;;;;;;;;;;;;;7367305;19;2050;-69
2023/05/10 06:24:54;;;;;;;;;;;;;;;;;;7366199;19;1255;-66
2023/05/10 06:27:22;;;;;;;;;;;;;;;;;;7366497;19;846;-68
2023/05/10 06:29:51;;;;;;;;;;;;;;;;;;7367414;19;1573;-67
2023/05/10 06:32:19;;;;;;;;;;;;;;;;;;7372770;19;1825;-70
2023/05/10 06:34:47;;;;;;;;;;;;;;;;;;7366589;19;1366;-69
2023/05/10 06:37:15;;;;;;;;;;;;;;;;;;7372681;19;795;-67
2023/05/10 06:39:43;;;;;;;;;;;;;;;;;;7371948;19;808;-68
2023/05/10 06:42:11;;;;;;;;;;;;;;;;;;7372740;19;1845;-70
2023/05/10 06:44:39;;;;;;;;;;;;;;;;;;7371970;19;1218;-70
2023/05/10 06:47:08;;;;;;;;;;;;;;;;;;7369213;19;790;-71
2023/05/10 06:49:36;;;;;;;;;;;;;;;;;;7369514;19;897;-68
2023/05/10 06:52:05;;;;;;;;;;;;;;;;;;7370430;19;1583;-71
2023/05/10 06:54:33;;;;;;;;;;;;;;;;;;7368656;19;1282;-69
2023/05/10 06:57:03;;;;;;;;;;;;;;;;;;7368593;19;786;-70
2023/05/10 06:59:31;;;;;;;;;;;;;;;;;;7367125;19;868;-66
2023/05/10 07:01:59;;;;;;;;;;;;;;;;;;7368090;19;727;-71
2023/05/10 07:04:27;;;;;;;;;;;;;;;;;;7364836;19;1810;-70
2023/05/10 07:06:56;;;;;;;;;;;;;;;;;;7369189;19;1836;-71
2023/05/10 07:09:24;;;;;;;;;;;;;;;;;;7370299;19;1846;-71
2023/05/10 07:11:52;;;;;;;;;;;;;;;;;;7368477;19;845;-72
2023/05/10 07:14:20;;;;;;;;;;;;;;;;;;7369801;19;1517;-70
2023/05/10 07:16:49;;;;;;;;;;;;;;;;;;7371419;19;1115;-71
2023/05/10 07:19:17;;;;;;;;;;;;;;;;;;7369306;19;1777;-72
2023/05/10 07:21:45;;;;;;;;;;;;;;;;;;7365381;19;869;-72
2023/05/10 07:24:13;;;;;;;;;;;;;;;;;;7363747;19;1845;-71
2023/05/10 07:26:41;;;;;;;;;;;;;;;;;;7366364;19;837;-71
2023/05/10 07:29:09;;;;;;;;;;;;;;;;;;7367651;19;1859;-69
2023/05/10 07:31:38;;;;;;;;;;;;;;;;;;7369096;19;2036;-70
2023/05/10 07:34:06;;;;;;;;;;;;;;;;;;7366030;19;1294;-69
2023/05/10 07:36:34;;;;;;;;;;;;;;;;;;7366025;19;867;-71
2023/05/10 07:39:02;;;;;;;;;;;;;;;;;;7368696;19;1795;-69
2023/05/10 07:41:30;;;;;;;;;;;;;;;;;;7368988;19;1844;-69
2023/05/10 07:43:59;;;;;;;;;;;;;;;;;;7364155;19;1835;-71
2023/05/10 07:46:27;;;;;;;;;;;;;;;;;;7365065;19;847;-70
2023/05/10 07:48:55;;;;;;;;;;;;;;;;;;7364417;19;817;-69
2023/05/10 07:51:23;;;;;;;;;;;;;;;;;;7366747;19;1585;-70
2023/05/10 07:53:51;;;;;;;;;;;;;;;;;;7364911;19;809;-69
2023/05/10 07:56:19;;;;;;;;;;;;;;;;;;7362692;19;1278;-71
2023/05/10 07:58:47;;;;;;;;;;;;;;;;;;7365240;19;1782;-71
2023/05/10 08:01:16;;;;;;;;;;;;;;;;;;7366290;19;1580;-70
2023/05/10 08:03:44;;;;;;;;;;;;;;;;;;7363556;19;1853;-68
2023/05/10 08:06:12;;;;;;;;;;;;;;;;;;7361752;19;1251;-70
2023/05/10 08:08:40;;;;;;;;;;;;;;;;;;7363776;19;841;-68
2023/05/10 08:11:08;;;;;;;;;;;;;;;;;;7367959;19;2068;-70
2023/05/10 08:13:37;;;;;;;;;;;;;;;;;;7362513;19;864;-71
2023/05/10 08:16:05;;;;;;;;;;;;;;;;;;7363511;19;1507;-71
2023/05/10 08:18:33;;;;;;;;;;;;;;;;;;7363361;19;790;-71
2023/05/10 08:21:01;;;;;;;;;;;;;;;;;;7362758;19;647;-71
2023/05/10 08:23:29;;;;;;;;;;;;;;;;;;7361748;19;1864;-71
2023/05/10 08:25:57;;;;;;;;;;;;;;;;;;7362001;19;1273;-71
2023/05/10 08:28:25;;;;;;;;;;;;;;;;;;7365121;19;1594;-71
2023/05/10 08:30:54;;;;;;;;;;;;;;;;;;7362900;19;804;-68
2023/05/10 08:33:22;;;;;;;;;;;;;;;;;;7363248;19;831;-70
2023/05/10 08:35:50;;;;;;;;;;;;;;;;;;7368060;19;1337;-71
2023/05/10 08:38:18;;;;;;;;;;;;;;;;;;7369604;19;787;-69
2023/05/10 08:40:46;;;;;;;;;;;;;;;;;;7369829;19;818;-70
2023/05/10 08:43:15;;;;;;;;;;;;;;;;;;7369088;19;1831;-70
2023/05/10 08:45:43;;;;;;;;;;;;;;;;;;7367678;19;1285;-71
2023/05/10 08:48:11;;;;;;;;;;;;;;;;;;7369409;19;1005;-70
2023/05/10 08:50:39;;;;;;;;;;;;;;;;;;7370159;19;847;-69
2023/05/10 08:53:07;;;;;;;;;;;;;;;;;;7370104;19;815;-68
2023/05/10 08:55:36;;;;;;;;;;;;;;;;;;7367795;19;1341;-70
2023/05/10 08:58:04;;;;;;;;;;;;;;;;;;7369853;19;2015;-71
2023/05/10 09:00:33;;;;;;;;;;;;;;;;;;7373168;19;1432;-68
2023/05/10 09:03:01;;;;;;;;;;;;;;;;;;7369877;19;1859;-70
2023/05/10 09:05:29;;;;;;;;;;;;;;;;;;7368527;19;1886;-70
2023/05/10 09:07:58;;;;;;;;;;;;;;;;;;7370128;19;1361;-68
2023/05/10 09:10:27;;;;;;;;;;;;;;;;;;7372741;19;1701;-67
2023/05/10 09:12:55;;;;;;;;;;;;;;;;;;7373239;19;1831;-69
2023/05/10 09:15:23;;;;;;;;;;;;;;;;;;7368155;19;1337;-68
2023/05/10 09:17:51;;;;;;;;;;;;;;;;;;7368429;19;846;-67
2023/05/10 09:20:20;;;;;;;;;;;;;;;;;;7368527;19;815;-66
2023/05/10 09:22:48;;;;;;;;;;;;;;;;;;7368925;19;822;-70
2023/05/10 09:25:16;;;;;;;;;;;;;;;;;;7366688;19;1850;-68
2023/05/10 09:27:44;;;;;;;;;;;;;;;;;;7369847;19;1804;-68
2023/05/10 09:30:12;;;;;;;;;;;;;;;;;;7372181;19;1559;-68
2023/05/10 09:32:41;;;;;;;;;;;;;;;;;;7367686;19;873;-68
2023/05/10 09:35:09;;;;;;;;;;;;;;;;;;7366642;19;1235;-68
2023/05/10 09:37:37;;;;;;;;;;;;;;;;;;7370675;19;1794;-68
2023/05/10 09:40:05;;;;;;;;;;;;;;;;;;7372753;19;1405;-68
2023/05/10 09:42:33;;;;;;;;;;;;;;;;;;7373489;19;1523;-67
2023/05/10 09:45:02;;;;;;;;;;;;;;;;;;7366055;19;1838;-67
2023/05/10 09:47:30;;;;;;;;;;;;;;;;;;7369296;19;611;-67
2023/05/10 09:50:02;;;;;;;;;;;;;;;;;;7367684;19;818;-68
2023/05/10 09:52:31;;;;;;;;;;;;;;;;;;7367231;19;551;-68
2023/05/10 09:54:59;;;;;;;;;;;;;;;;;;7365217;19;1270;-69
2023/05/10 09:57:27;;;;;;;;;;;;;;;;;;7364234;19;740;-68
2023/05/10 09:59:58;;;;;;;;;;;;;;;;;;7365264;19;777;-68
2023/05/10 10:02:26;;;;;;;;;;;;;;;;;;7367846;19;567;-67
2023/05/10 10:04:54;;;;;;;;;;;;;;;;;;7365711;19;1861;-66
2023/05/10 10:07:22;;;;;;;;;;;;;;;;;;7367472;19;804;-67
2023/05/10 10:09:50;;;;;;;;;;;;;;;;;;7367487;19;871;-67
2023/05/10 10:12:19;;;;;;;;;;;;;;;;;;7367311;19;624;-67
2023/05/10 10:14:47;;;;;;;;;;;;;;;;;;7369910;19;1317;-68
2023/05/10 10:17:15;;;;;;;;;;;;;;;;;;7365697;19;817;-66
2023/05/10 10:19:43;;;;;;;;;;;;;;;;;;7366319;19;805;-68
2023/05/10 10:22:13;;;;;;;;;;;;;;;;;;7367355;19;819;-68
2023/05/10 10:24:42;;;;;;;;;;;;;;;;;;7364949;19;1855;-65
2023/05/10 10:27:10;;;;;;;;;;;;;;;;;;7367863;19;1823;-68
2023/05/10 10:29:38;;;;;;;;;;;;;;;;;;7365826;19;817;-69
2023/05/10 10:32:06;;;;;;;;;;;;;;;;;;7365709;19;830;-68
2023/05/10 10:34:34;;;;;;;;;;;;;;;;;;7366171;19;1288;-67
2023/05/10 10:37:02;;;;;;;;;;;;;;;;;;7366173;19;1105;-67
2023/05/10 10:39:30;;;;;;;;;;;;;;;;;;7368319;19;1885;-67
2023/05/10 10:41:59;;;;;;;;;;;;;;;;;;7366706;19;818;-68
2023/05/10 10:44:27;;;;;;;;;;;;;;;;;;7367483;19;2043;-68
2023/05/10 10:46:55;;;;;;;;;;;;;;;;;;7365097;19;831;-67
2023/05/10 10:49:23;;;;;;;;;;;;;;;;;;7365344;19;668;-67
2023/05/10 10:51:51;;;;;;;;;;;;;;;;;;7366530;19;874;-66
2023/05/10 10:54:19;;;;;;;;;;;;;;;;;;7368473;19;1777;-67
2023/05/10 10:56:48;;;;;;;;;;;;;;;;;;7364847;19;1354;-67
2023/05/10 10:59:16;;;;;;;;;;;;;;;;;;7365406;19;815;-68
2023/05/10 11:01:44;;;;;;;;;;;;;;;;;;7366952;19;968;-66
2023/05/10 11:04:12;;;;;;;;;;;;;;;;;;7367096;19;1843;-69
2023/05/10 11:06:42;;;;;;;;;;;;;;;;;;7365698;19;885;-69
2023/05/10 11:09:10;;;;;;;;;;;;;;;;;;7365393;19;873;-67
2023/05/10 11:11:39;;;;;;;;;;;;;;;;;;7366505;19;1413;-67
2023/05/10 11:14:07;;;;;;;;;;;;;;;;;;7365137;19;1322;-69
2023/05/10 11:16:35;;;;;;;;;;;;;;;;;;7365460;19;909;-68
2023/05/10 11:19:04;;;;;;;;;;;;;;;;;;7365322;19;997;-69
2023/05/10 11:21:32;;;;;;;;;;;;;;;;;;7366033;19;801;-67
2023/05/10 11:24:00;;;;;;;;;;;;;;;;;;7368353;19;1861;-67
2023/05/10 11:26:29;;;;;;;;;;;;;;;;;;7366353;19;825;-67
2023/05/10 11:29:01;;;;;;;;;;;;;;;;;;7365120;19;818;-68
2023/05/10 11:31:29;;;;;;;;;;;;;;;;;;7366524;19;1808;-70
2023/05/10 11:33:57;;;;;;;;;;;;;;;;;;7365194;19;814;-67
2023/05/10 11:36:26;;;;;;;;;;;;;;;;;;7364364;19;1871;-68
2023/05/10 11:38:54;;;;;;;;;;;;;;;;;;7365341;19;2023;-67
2023/05/10 11:41:23;;;;;;;;;;;;;;;;;;7365081;19;800;-66
2023/05/10 11:43:51;;;;;;;;;;;;;;;;;;7368520;19;1865;-66
2023/05/10 11:46:20;;;;;;;;;;;;;;;;;;7361323;19;1287;-67
2023/05/10 11:48:48;;;;;;;;;;;;;;;;;;7365294;19;807;-70
2023/05/10 11:51:16;;;;;;;;;;;;;;;;;;7364933;19;882;-69
2023/05/10 11:53:44;;;;;;;;;;;;;;;;;;7364159;19;817;-69
2023/05/10 11:56:12;;;;;;;;;;;;;;;;;;7361790;19;1239;-69
2023/05/10 11:58:40;;;;;;;;;;;;;;;;;;7364499;19;807;-67
2023/05/10 12:01:08;;;;;;;;;;;;;;;;;;7364085;19;817;-67
2023/05/10 12:03:37;;;;;;;;;;;;;;;;;;7364224;19;687;-68
2023/05/10 12:06:05;;;;;;;;;;;;;;;;;;7361234;19;1849;-66
2023/05/10 12:08:33;;;;;;;;;;;;;;;;;;7367158;19;750;-67
2023/05/10 12:11:01;;;;;;;;;;;;;;;;;;7369872;19;838;-66
2023/05/10 12:13:29;;;;;;;;;;;;;;;;;;7369788;19;1003;-66
2023/05/10 12:15:57;;;;;;;;;;;;;;;;;;7368587;19;1328;-66
2023/05/10 12:18:26;;;;;;;;;;;;;;;;;;7369549;19;1391;-66
2023/05/10 12:20:55;;;;;;;;;;;;;;;;;;7374376;19;1702;-67
2023/05/10 12:23:23;;;;;;;;;;;;;;;;;;7370280;19;842;-68
2023/05/10 12:25:53;;;;;;;;;;;;;;;;;;7367644;19;1855;-67
2023/05/10 12:28:21;;;;;;;;;;;;;;;;;;7370133;19;617;-68
2023/05/10 12:30:50;;;;;;;;;;;;;;;;;;7369834;19;826;-67
2023/05/10 12:33:18;;;;;;;;;;;;;;;;;;7370733;19;842;-67
2023/05/10 12:35:46;;;;;;;;;;;;;;;;;;7367925;19;1317;-66
2023/05/10 12:38:14;;;;;;;;;;;;;;;;;;7369557;19;819;-66
2023/05/10 12:40:42;;;;;;;;;;;;;;;;;;7369570;19;740;-65
2023/05/10 12:43:10;;;;;;;;;;;;;;;;;;7369815;19;807;-65
2023/05/10 12:45:38;;;;;;;;;;;;;;;;;;7367952;19;1845;-66
2023/05/10 12:48:07;;;;;;;;;;;;;;;;;;7369035;19;820;-67
2023/05/10 12:50:35;;;;;;;;;;;;;;;;;;7373237;19;1637;-66
2023/05/10 12:53:03;;;;;;;;;;;;;;;;;;7369853;19;782;-67
2023/05/10 12:55:31;;;;;;;;;;;;;;;;;;7368329;19;1298;-66
2023/05/10 12:57:59;;;;;;;;;;;;;;;;;;7368822;19;2130;-66
2023/05/10 13:00:27;;;;;;;;;;;;;;;;;;7372301;19;1791;-67
2023/05/10 13:02:55;;;;;;;;;;;;;;;;;;7369149;19;805;-67
2023/05/10 13:05:24;;;;;;;;;;;;;;;;;;7367804;19;1857;-67
2023/05/10 13:07:52;;;;;;;;;;;;;;;;;;7368894;19;770;-67
2023/05/10 13:10:20;;;;;;;;;;;;;;;;;;7370802;19;1351;-67
2023/05/10 13:12:48;;;;;;;;;;;;;;;;;;7369625;19;856;-68
2023/05/10 13:15:16;;;;;;;;;;;;;;;;;;7367784;19;1325;-67
2023/05/10 13:17:45;;;;;;;;;;;;;;;;;;7371143;19;1440;-67
2023/05/10 13:20:13;;;;;;;;;;;;;;;;;;7371727;19;1440;-67
2023/05/10 13:22:41;;;;;;;;;;;;;;;;;;7372525;19;1752;-69
2023/05/10 13:25:09;;;;;;;;;;;;;;;;;;7367329;19;1845;-68
2023/05/10 13:27:37;;;;;;;;;;;;;;;;;;7368288;19;889;-67
2023/05/10 13:30:05;;;;;;;;;;;;;;;;;;7370163;19;708;-68
2023/05/10 13:32:33;;;;;;;;;;;;;;;;;;7372895;19;1884;-65
2023/05/10 13:35:03;;;;;;;;;;;;;;;;;;7367983;19;1308;-68
2023/05/10 13:37:31;;;;;;;;;;;;;;;;;;7369650;19;1769;-68
2023/05/10 13:39:59;;;;;;;;;;;;;;;;;;7367826;19;885;-69
2023/05/10 13:42:28;;;;;;;;;;;;;;;;;;7370531;19;1998;-67
2023/05/10 13:44:56;;;;;;;;;;;;;;;;;;7367306;19;2049;-65
2023/05/10 13:47:24;;;;;;;;;;;;;;;;;;7368228;19;795;-68
2023/05/10 13:49:52;;;;;;;;;;;;;;;;;;7367293;19;951;-64
2023/05/10 13:52:20;;;;;;;;;;;;;;;;;;7368998;19;1823;-65
2023/05/10 13:54:48;;;;;;;;;;;;;;;;;;7367272;19;1710;-68
2023/05/10 13:57:16;;;;;;;;;;;;;;;;;;7368591;19;1831;-67
2023/05/10 13:59:45;;;;;;;;;;;;;;;;;;7371343;19;1616;-67
2023/05/10 14:02:13;;;;;;;;;;;;;;;;;;7367033;19;759;-66
2023/05/10 14:04:41;;;;;;;;;;;;;;;;;;7366542;19;1861;-66
2023/05/10 14:07:09;;;;;;;;;;;;;;;;;;7367512;19;854;-66
2023/05/10 14:09:37;;;;;;;;;;;;;;;;;;7371020;19;1416;-66
2023/05/10 14:12:05;;;;;;;;;;;;;;;;;;7370304;19;1725;-67
2023/05/10 14:14:33;;;;;;;;;;;;;;;;;;7368805;19;1591;-67
2023/05/10 14:17:02;;;;;;;;;;;;;;;;;;7370209;19;1450;-67
2023/05/10 14:19:32;;;;;;;;;;;;;;;;;;7366534;19;806;-66
2023/05/10 14:22:00;;;;;;;;;;;;;;;;;;7366880;19;801;-67
2023/05/10 14:24:28;;;;;;;;;;;;;;;;;;7368733;19;1865;-67
2023/05/10 14:26:56;;;;;;;;;;;;;;;;;;7366894;19;808;-67
2023/05/10 14:29:24;;;;;;;;;;;;;;;;;;7366248;19;940;-65
2023/05/10 14:31:53;;;;;;;;;;;;;;;;;;7363932;19;866;-65
2023/05/10 14:34:21;;;;;;;;;;;;;;;;;;7366680;19;1837;-68
2023/05/10 14:36:49;;;;;;;;;;;;;;;;;;7368976;19;1826;-66
2023/05/10 14:39:18;;;;;;;;;;;;;;;;;;7363469;19;810;-65
2023/05/10 14:41:47;;;;;;;;;;;;;;;;;;7366627;19;685;-66
2023/05/10 14:44:15;;;;;;;;;;;;;;;;;;7366321;19;1293;-66
2023/05/10 14:46:43;;;;;;;;;;;;;;;;;;7363100;19;1845;-66
2023/05/10 14:49:11;;;;;;;;;;;;;;;;;;7366052;19;831;-68
2023/05/10 14:51:39;;;;;;;;;;;;;;;;;;7366506;19;812;-65
2023/05/10 14:54:07;;;;;;;;;;;;;;;;;;7365865;19;1302;-65
2023/05/10 14:56:37;;;;;;;;;;;;;;;;;;7366235;19;804;-67
2023/05/10 14:59:05;;;;;;;;;;;;;;;;;;7367453;19;1771;-66
2023/05/10 15:01:35;;;;;;;;;;;;;;;;;;7369005;19;1968;-66
2023/05/10 15:04:03;;;;;;;;;;;;;;;;;;7366624;19;568;-67
2023/05/10 15:06:31;;;;;;;;;;;;;;;;;;7363936;19;1842;-68
2023/05/10 15:08:59;;;;;;;;;;;;;;;;;;7367215;19;1815;-68
2023/05/10 15:11:27;;;;;;;;;;;;;;;;;;7369592;19;1338;-68
2023/05/10 15:13:55;;;;;;;;;;;;;;;;;;7365687;19;806;-67
2023/05/10 15:16:24;;;;;;;;;;;;;;;;;;7362528;19;1325;-67
2023/05/10 15:18:52;;;;;;;;;;;;;;;;;;7366906;19;1828;-65
2023/05/10 15:21:20;;;;;;;;;;;;;;;;;;7365194;19;771;-66
2023/05/10 15:23:48;;;;;;;;;;;;;;;;;;7365300;19;746;-65
2023/05/10 15:26:16;;;;;;;;;;;;;;;;;;7361754;19;1858;-65
2023/05/10 15:28:45;;;;;;;;;;;;;;;;;;7366346;19;1780;-65
2023/05/10 15:31:13;;;;;;;;;;;;;;;;;;7365046;19;808;-65
2023/05/10 15:33:41;;;;;;;;;;;;;;;;;;7367094;19;1450;-65
2023/05/10 15:36:09;;;;;;;;;;;;;;;;;;7362962;19;1324;-67
2023/05/10 15:38:37;;;;;;;;;;;;;;;;;;7364842;19;835;-65
2023/05/10 15:41:05;;;;;;;;;;;;;;;;;;7364771;19;872;-66
2023/05/10 15:43:34;;;;;;;;;;;;;;;;;;7369136;19;1755;-65
2023/05/10 15:46:02;;;;;;;;;;;;;;;;;;7370464;19;1861;-65
2023/05/10 15:48:31;;;;;;;;;;;;;;;;;;7371784;19;820;-66
2023/05/10 15:50:59;;;;;;;;;;;;;;;;;;7371469;19;779;-67
2023/05/10 15:53:27;;;;;;;;;;;;;;;;;;7371944;19;1818;-66
2023/05/10 15:55:55;;;;;;;;;;;;;;;;;;7370146;19;1263;-66
2023/05/10 15:58:23;;;;;;;;;;;;;;;;;;7370897;19;877;-65
2023/05/10 16:00:51;;;;;;;;;;;;;;;;;;7371628;19;808;-67
2023/05/10 16:03:19;;;;;;;;;;;;;;;;;;7371591;19;835;-66
2023/05/10 16:05:47;;;;;;;;;;;;;;;;;;7370081;19;1853;-66
2023/05/10 16:08:16;;;;;;;;;;;;;;;;;;7371230;19;886;-65
2023/05/10 16:10:44;;;;;;;;;;;;;;;;;;7371134;19;794;-65
2023/05/10 16:13:13;;;;;;;;;;;;;;;;;;7374281;19;1529;-65
2023/05/10 16:15:42;;;;;;;;;;;;;;;;;;7373075;19;1725;-67
2023/05/10 16:18:10;;;;;;;;;;;;;;;;;;7369755;19;833;-66
2023/05/10 16:20:38;;;;;;;;;;;;;;;;;;7370459;19;839;-65
2023/05/10 16:23:06;;;;;;;;;;;;;;;;;;7370056;19;850;-65
2023/05/10 16:25:34;;;;;;;;;;;;;;;;;;7371720;19;2046;-65
2023/05/10 16:28:02;;;;;;;;;;;;;;;;;;7369465;19;857;-65
2023/05/10 16:30:30;;;;;;;;;;;;;;;;;;7370161;19;830;-66
2023/05/10 16:32:58;;;;;;;;;;;;;;;;;;7369817;19;807;-65
2023/05/10 16:35:28;;;;;;;;;;;;;;;;;;7371113;19;1786;-67
2023/05/10 16:37:56;;;;;;;;;;;;;;;;;;7371679;19;1877;-65
2023/05/10 16:40:25;;;;;;;;;;;;;;;;;;7368923;19;860;-65
2023/05/10 16:42:53;;;;;;;;;;;;;;;;;;7372216;19;1073;-64
2023/05/10 16:45:21;;;;;;;;;;;;;;;;;;7372989;19;2151;-65
2023/05/10 16:47:49;;;;;;;;;;;;;;;;;;7368885;19;803;-65
2023/05/10 16:50:17;;;;;;;;;;;;;;;;;;7369748;19;814;-66
2023/05/10 16:52:46;;;;;;;;;;;;;;;;;;7372559;19;1594;-65
2023/05/10 16:55:14;;;;;;;;;;;;;;;;;;7370455;19;1572;-65
2023/05/10 16:57:42;;;;;;;;;;;;;;;;;;7368821;19;793;-65
2023/05/10 17:00:10;;;;;;;;;;;;;;;;;;7369283;19;819;-65
2023/05/10 17:02:38;;;;;;;;;;;;;;;;;;7369525;19;763;-67
2023/05/10 17:05:07;;;;;;;;;;;;;;;;;;7369717;19;2061;-67
2023/05/10 17:07:35;;;;;;;;;;;;;;;;;;7366657;19;1838;-65
2023/05/10 17:10:03;;;;;;;;;;;;;;;;;;7368230;19;846;-66
2023/05/10 17:12:31;;;;;;;;;;;;;;;;;;7369131;19;555;-65
2023/05/10 17:15:00;;;;;;;;;;;;;;;;;;7369672;19;1906;-66
2023/05/10 17:17:28;;;;;;;;;;;;;;;;;;7369278;19;878;-66